createdAt,value
2023-03-31T00:01:26.954Z,1071.00
2023-03-31T00:05:27.339Z,1067.00
2023-03-31T00:09:26.969Z,1064.00
2023-03-31T00:13:26.955Z,1061.00
2023-03-31T00:17:27.394Z,1057.00
2023-03-31T00:21:26.940Z,1057.00
2023-03-31T00:25:27.358Z,1053.00
2023-03-31T00:29:27.040Z,1048.00
2023-03-31T00:33:27.013Z,1046.00
2023-03-31T00:37:27.396Z,1042.00
2023-03-31T00:41:27.342Z,1048.00
2023-03-31T00:45:27.050Z,1044.00
2023-03-31T00:49:27.015Z,1038.00
2023-03-31T00:53:27.378Z,1040.00
2023-03-31T00:57:27.509Z,1042.00
2023-03-31T01:01:27.020Z,1043.00
2023-03-31T01:05:27.357Z,1035.00
2023-03-31T01:09:26.899Z,1036.00
2023-03-31T01:13:26.903Z,1037.00
2023-03-31T01:17:27.587Z,1032.00
2023-03-31T01:21:26.866Z,1028.00
2023-03-31T01:25:26.904Z,1024.00
2023-03-31T01:29:26.827Z,1024.00
2023-03-31T01:33:26.858Z,1019.00
2023-03-31T01:37:26.863Z,1014.00
2023-03-31T01:41:26.887Z,1007.00
2023-03-31T01:45:26.889Z,1009.00
2023-03-31T01:49:26.718Z,1007.00
2023-03-31T01:53:26.896Z,1014.00
2023-03-31T01:57:26.749Z,1010.00
2023-03-31T02:01:26.752Z,1009.00
2023-03-31T02:05:26.674Z,1007.00
2023-03-31T02:09:26.635Z,1005.00
2023-03-31T02:13:26.678Z,1000.00
2023-03-31T02:17:26.918Z,998.00
2023-03-31T02:21:26.894Z,992.00
2023-03-31T02:25:26.619Z,995.00
2023-03-31T02:29:26.908Z,991.00
2023-03-31T02:33:26.919Z,994.00
2023-03-31T02:37:26.921Z,985.00
2023-03-31T02:41:26.557Z,982.00
2023-03-31T02:45:26.573Z,984.00
2023-03-31T02:49:26.568Z,978.00
2023-03-31T02:53:26.915Z,975.00
2023-03-31T02:57:26.973Z,969.00
2023-03-31T03:01:26.954Z,973.00
2023-03-31T03:05:26.530Z,971.00
2023-03-31T03:09:26.514Z,968.00
2023-03-31T03:13:26.925Z,969.00
2023-03-31T03:17:26.993Z,962.00
2023-03-31T03:21:26.954Z,955.00
2023-03-31T03:25:26.482Z,956.00
2023-03-31T03:29:26.962Z,954.00
2023-03-31T03:33:26.919Z,955.00
2023-03-31T03:37:26.916Z,957.00
2023-03-31T03:41:26.989Z,946.00
2023-03-31T03:45:26.418Z,945.00
2023-03-31T03:49:26.438Z,945.00
2023-03-31T03:53:26.413Z,946.00
2023-03-31T03:57:26.550Z,946.00
2023-03-31T04:01:26.318Z,944.00
2023-03-31T04:05:26.495Z,942.00
2023-03-31T04:09:26.431Z,942.00
2023-03-31T04:13:26.425Z,943.00
2023-03-31T04:17:26.467Z,940.00
2023-03-31T04:21:26.365Z,932.00
2023-03-31T04:25:26.427Z,929.00
2023-03-31T04:29:26.422Z,931.00
2023-03-31T04:33:26.384Z,928.00
2023-03-31T04:37:26.448Z,924.00
2023-03-31T04:41:26.371Z,921.00
2023-03-31T04:45:26.482Z,918.00
2023-03-31T04:49:26.445Z,920.00
2023-03-31T04:53:26.427Z,916.00
2023-03-31T04:57:26.486Z,918.00
2023-03-31T05:01:26.460Z,914.00
2023-03-31T05:05:26.470Z,908.00
2023-03-31T05:09:26.434Z,905.00
2023-03-31T05:13:26.486Z,910.00
2023-03-31T05:17:26.478Z,910.00
2023-03-31T05:21:26.409Z,906.00
2023-03-31T05:25:26.478Z,903.00
2023-03-31T05:29:26.420Z,906.00
2023-03-31T05:33:26.504Z,904.00
2023-03-31T05:37:26.436Z,900.00
2023-03-31T05:41:26.486Z,901.00
2023-03-31T05:45:26.483Z,903.00
2023-03-31T05:49:26.478Z,906.00
2023-03-31T05:53:26.490Z,1108.00
2023-03-31T05:57:26.508Z,1257.00
2023-03-31T06:01:26.522Z,1455.00
2023-03-31T06:05:26.487Z,996.00
2023-03-31T06:09:26.353Z,987.00
2023-03-31T06:13:26.524Z,941.00
2023-03-31T06:17:26.267Z,888.00
2023-03-31T06:21:26.487Z,973.00
2023-03-31T06:25:26.658Z,1015.00
2023-03-31T06:29:26.501Z,821.00
2023-03-31T06:33:26.526Z,787.00
2023-03-31T06:37:26.068Z,729.00
2023-03-31T06:41:26.512Z,796.00
2023-03-31T06:45:26.511Z,739.00
2023-03-31T06:49:26.016Z,1028.00
2023-03-31T06:53:26.524Z,1176.00
2023-03-31T06:57:25.936Z,1189.00
2023-03-31T07:01:25.957Z,1168.00
2023-03-31T07:05:26.014Z,1159.00
2023-03-31T07:09:26.505Z,1138.00
2023-03-31T07:13:26.569Z,1130.00
2023-03-31T07:17:26.157Z,1127.00
2023-03-31T07:21:26.530Z,1113.00
2023-03-31T07:25:26.507Z,1106.00
2023-03-31T07:29:26.518Z,1105.00
2023-03-31T07:33:26.027Z,1102.00
2023-03-31T07:37:25.985Z,1103.00
2023-03-31T07:41:26.017Z,1103.00
2023-03-31T07:45:26.083Z,1110.00
2023-03-31T07:49:26.041Z,1289.00
2023-03-31T07:53:25.786Z,1160.00
2023-03-31T07:57:26.150Z,1256.00
2023-03-31T08:01:25.745Z,1253.00
2023-03-31T08:05:26.051Z,1180.00
2023-03-31T08:09:26.033Z,1084.00
2023-03-31T08:13:25.644Z,1063.00
2023-03-31T08:17:25.632Z,1047.00
2023-03-31T08:21:25.562Z,1044.00
2023-03-31T08:25:25.552Z,1056.00
2023-03-31T08:29:25.523Z,1130.00
2023-03-31T08:33:25.443Z,1223.00
2023-03-31T08:37:25.547Z,1252.00
2023-03-31T08:41:26.099Z,1361.00
2023-03-31T08:45:26.064Z,1452.00
2023-03-31T08:49:26.033Z,1609.00
2023-03-31T08:53:26.062Z,1693.00
2023-03-31T08:57:26.668Z,1693.00
2023-03-31T09:01:26.391Z,1646.00
2023-03-31T09:05:27.070Z,1620.00
2023-03-31T09:09:26.892Z,1540.00
2023-03-31T09:13:27.069Z,1527.00
2023-03-31T09:17:27.074Z,1525.00
2023-03-31T09:21:27.077Z,1523.00
2023-03-31T09:25:27.063Z,1523.00
2023-03-31T09:29:26.575Z,1508.00
2023-03-31T09:33:26.594Z,1507.00
2023-03-31T09:37:26.578Z,1500.00
2023-03-31T09:41:26.561Z,1484.00
2023-03-31T09:45:26.595Z,1483.00
2023-03-31T09:49:26.425Z,1508.00
2023-03-31T09:53:26.586Z,1747.00
2023-03-31T09:57:27.233Z,1962.00
2023-03-31T10:01:26.674Z,2158.00
2023-03-31T10:05:27.116Z,2287.00
2023-03-31T10:09:26.692Z,2299.00
2023-03-31T10:13:27.090Z,2382.00
2023-03-31T10:17:27.135Z,2466.00
2023-03-31T10:21:27.120Z,2437.00
2023-03-31T10:25:27.115Z,2412.00
2023-03-31T10:29:26.647Z,2440.00
2023-03-31T10:33:27.142Z,2471.00
2023-03-31T10:37:27.103Z,2461.00
2023-03-31T10:41:27.155Z,2558.00
2023-03-31T10:45:36.407Z,2614.00
2023-03-31T10:49:27.835Z,2543.00
2023-03-31T10:53:26.903Z,2505.00
2023-03-31T10:57:27.289Z,2478.00
2023-03-31T11:01:27.014Z,2464.00
2023-03-31T11:05:27.022Z,2453.00
2023-03-31T11:09:27.120Z,2422.00
2023-03-31T11:13:27.168Z,2404.00
2023-03-31T11:17:27.753Z,2384.00
2023-03-31T11:21:27.607Z,2363.00
2023-03-31T11:25:27.589Z,2340.00
2023-03-31T11:29:28.109Z,2335.00
2023-03-31T11:33:27.991Z,2313.00
2023-03-31T11:37:28.089Z,2302.00
2023-03-31T11:41:28.113Z,2278.00
2023-03-31T11:45:27.888Z,2263.00
2023-03-31T11:49:28.133Z,2242.00
2023-03-31T11:53:28.132Z,2233.00
2023-03-31T11:57:28.338Z,2231.00
2023-03-31T12:01:27.755Z,2220.00
2023-03-31T12:05:27.674Z,2212.00
2023-03-31T12:09:28.157Z,2206.00
2023-03-31T12:13:27.619Z,2196.00
2023-03-31T12:17:28.142Z,2185.00
2023-03-31T12:21:27.786Z,2186.00
2023-03-31T12:25:28.169Z,2171.00
2023-03-31T12:29:27.862Z,2147.00
2023-03-31T12:33:28.111Z,2134.00
2023-03-31T12:37:28.137Z,2086.00
2023-03-31T12:41:27.874Z,2064.00
2023-03-31T12:45:28.127Z,2045.00
2023-03-31T12:49:28.139Z,2035.00
2023-03-31T12:53:27.825Z,2017.00
2023-03-31T12:57:28.313Z,2007.00
2023-03-31T13:01:34.958Z,1996.00
2023-03-31T13:05:28.177Z,1988.00
2023-03-31T13:09:28.190Z,1975.00
2023-03-31T13:13:28.192Z,1965.00
2023-03-31T13:17:28.239Z,1951.00
2023-03-31T13:21:27.623Z,1956.00
2023-03-31T13:25:27.609Z,1947.00
2023-03-31T13:29:27.720Z,1944.00
2023-03-31T13:33:27.676Z,1942.00
2023-03-31T13:37:27.690Z,1940.00
2023-03-31T13:41:27.454Z,1938.00
2023-03-31T13:45:27.741Z,1935.00
2023-03-31T13:49:27.401Z,1925.00
2023-03-31T13:53:27.714Z,1920.00
2023-03-31T13:57:27.741Z,1912.00
2023-03-31T14:01:27.299Z,1909.00
2023-03-31T14:05:27.239Z,1903.00
2023-03-31T14:09:27.714Z,1906.00
2023-03-31T14:13:27.723Z,1899.00
2023-03-31T14:17:27.308Z,1896.00
2023-03-31T14:21:27.686Z,1901.00
2023-03-31T14:25:27.516Z,1894.00
2023-03-31T14:29:27.675Z,1891.00
2023-03-31T14:33:27.736Z,1877.00
2023-03-31T14:37:27.794Z,1867.00
2023-03-31T14:41:28.209Z,1864.00
2023-03-31T14:45:28.108Z,1863.00
2023-03-31T14:49:28.243Z,1869.00
2023-03-31T14:53:28.708Z,1861.00
2023-03-31T14:57:28.570Z,1849.00
2023-03-31T15:01:28.788Z,1842.00
2023-03-31T15:05:29.219Z,1844.00
2023-03-31T15:09:29.237Z,1839.00
2023-03-31T15:13:29.228Z,1832.00
2023-03-31T15:17:29.017Z,1820.00
2023-03-31T15:21:29.211Z,1815.00
2023-03-31T15:25:29.204Z,1817.00
2023-03-31T15:29:29.728Z,1817.00
2023-03-31T15:33:29.743Z,1808.00
2023-03-31T15:37:29.570Z,1809.00
2023-03-31T15:41:29.755Z,1798.00
2023-03-31T15:45:30.257Z,1798.00
2023-03-31T15:49:29.863Z,1796.00
2023-03-31T15:53:30.251Z,1789.00
2023-03-31T15:57:30.269Z,1781.00
2023-03-31T16:01:30.254Z,1775.00
2023-03-31T16:05:34.480Z,1772.00
2023-03-31T16:09:31.717Z,1764.00
2023-03-31T16:13:30.712Z,1755.00
2023-03-31T16:17:30.468Z,1754.00
2023-03-31T16:21:30.757Z,1748.00
2023-03-31T16:25:30.740Z,1739.00
2023-03-31T16:29:31.263Z,1726.00
2023-03-31T16:33:31.050Z,1720.00
2023-03-31T16:37:31.288Z,1716.00
2023-03-31T16:41:31.362Z,1704.00
2023-03-31T16:45:31.755Z,1701.00
2023-03-31T16:49:31.709Z,1697.00
2023-03-31T16:53:31.796Z,1691.00
2023-03-31T16:57:32.337Z,1682.00
2023-03-31T17:01:32.246Z,1682.00
2023-03-31T17:05:33.013Z,1676.00
2023-03-31T17:09:32.543Z,1674.00
2023-03-31T17:13:32.666Z,1659.00
2023-03-31T17:17:33.590Z,1653.00
2023-03-31T17:21:33.279Z,1643.00
2023-03-31T17:25:33.269Z,1643.00
2023-03-31T17:29:33.812Z,1630.00
2023-03-31T17:33:33.574Z,1627.00
2023-03-31T17:37:33.792Z,1635.00
2023-03-31T17:41:34.237Z,1631.00
2023-03-31T17:45:34.285Z,1616.00
2023-03-31T17:49:34.328Z,1606.00
2023-03-31T17:53:34.761Z,1609.00
2023-03-31T17:57:34.818Z,1600.00
2023-03-31T18:01:34.988Z,1588.00
2023-03-31T18:05:35.284Z,1593.00
2023-03-31T18:09:35.328Z,1587.00
2023-03-31T18:13:35.800Z,1575.00
2023-03-31T18:17:35.804Z,1565.00
2023-03-31T18:21:36.293Z,1564.00
2023-03-31T18:25:36.550Z,1559.00
2023-03-31T18:29:36.171Z,1554.00
2023-03-31T18:33:36.341Z,1606.00
2023-03-31T18:37:36.281Z,1710.00
2023-03-31T18:41:36.275Z,1750.00
2023-03-31T18:45:36.492Z,1798.00
2023-03-31T18:49:35.948Z,1781.00
2023-03-31T18:53:36.293Z,1726.00
2023-03-31T18:57:35.893Z,1640.00
2023-03-31T19:01:35.884Z,1707.00
2023-03-31T19:05:36.295Z,1697.00
2023-03-31T19:09:35.780Z,1659.00
2023-03-31T19:13:35.809Z,1589.00
2023-03-31T19:17:35.851Z,1575.00
2023-03-31T19:21:35.818Z,1492.00
2023-03-31T19:25:35.615Z,1473.00
2023-03-31T19:29:35.828Z,1478.00
2023-03-31T19:33:35.581Z,1555.00
2023-03-31T19:37:35.838Z,1570.00
2023-03-31T19:41:35.852Z,1596.00
2023-03-31T19:45:35.497Z,1554.00
2023-03-31T19:49:35.834Z,1532.00
2023-03-31T19:53:35.862Z,1502.00
2023-03-31T19:57:35.385Z,1458.00
2023-03-31T20:01:35.445Z,1427.00
2023-03-31T20:05:35.273Z,1421.00
2023-03-31T20:09:35.356Z,1413.00
2023-03-31T20:13:35.318Z,1407.00
2023-03-31T20:17:35.232Z,1402.00
2023-03-31T20:21:35.362Z,1387.00
2023-03-31T20:25:35.112Z,1380.00
2023-03-31T20:29:35.316Z,1390.00
2023-03-31T20:33:35.044Z,1386.00
2023-03-31T20:37:35.346Z,1382.00
2023-03-31T20:41:35.326Z,1375.00
2023-03-31T20:45:34.949Z,1372.00
2023-03-31T20:49:35.339Z,1370.00
2023-03-31T20:53:34.897Z,1362.00
2023-03-31T20:57:35.367Z,1359.00
2023-03-31T21:01:35.087Z,1355.00
2023-03-31T21:05:35.324Z,1344.00
2023-03-31T21:09:35.364Z,1336.00
2023-03-31T21:13:35.844Z,1340.00
2023-03-31T21:17:35.890Z,1341.00
2023-03-31T21:21:35.881Z,1336.00
2023-03-31T21:25:35.962Z,1335.00
2023-03-31T21:29:36.362Z,1329.00
2023-03-31T21:33:36.289Z,1321.00
2023-03-31T21:37:36.854Z,1322.00
2023-03-31T21:41:36.608Z,1317.00
2023-03-31T21:45:36.846Z,1318.00
2023-03-31T21:49:36.947Z,1313.00
2023-03-31T21:53:37.381Z,1307.00
2023-03-31T21:57:37.387Z,1301.00
2023-03-31T22:01:37.745Z,1300.00
2023-03-31T22:05:37.885Z,1292.00
2023-03-31T22:09:37.865Z,1290.00
2023-03-31T22:13:38.357Z,1282.00
2023-03-31T22:17:38.415Z,1275.00
2023-03-31T22:21:38.479Z,1274.00
2023-03-31T22:25:38.649Z,1277.00
2023-03-31T22:29:38.880Z,1270.00
2023-03-31T22:33:39.066Z,1266.00
2023-03-31T22:37:39.298Z,1263.00
2023-03-31T22:41:39.894Z,1264.00
2023-03-31T22:45:39.885Z,1257.00
2023-03-31T22:49:40.872Z,1257.00
2023-03-31T22:53:40.121Z,1254.00
2023-03-31T22:57:40.322Z,1255.00
2023-03-31T23:01:40.897Z,1252.00
2023-03-31T23:05:40.885Z,1245.00
2023-03-31T23:09:40.960Z,1241.00
2023-03-31T23:13:41.401Z,1238.00
2023-03-31T23:17:41.400Z,1229.00
2023-03-31T23:21:41.884Z,1230.00
2023-03-31T23:25:41.886Z,1229.00
2023-03-31T23:29:41.870Z,1227.00
2023-03-31T23:33:41.504Z,1230.00
2023-03-31T23:37:41.456Z,1216.00
2023-03-31T23:41:41.425Z,1213.00
2023-03-31T23:45:41.389Z,1211.00
2023-03-31T23:49:41.327Z,1212.00
2023-03-31T23:53:41.382Z,1206.00
2023-03-31T23:57:41.279Z,1205.00
